Time;durP1;ratioP1;P1;durP2;ratioP2;P2;SDS_P1;SDS_P2;PMS_P1;PMS_P2;Temp;Humidity;BMP_temperature;BMP_pressure;BME280_temperature;BME280_humidity;BME280_pressure;Samples;Min_cycle;Max_cycle;Signal;HPM_P1;HPM_P2
2023/02/12 00:01:47;;;;;;;16.83;15.52;;;;;;;;;;4957955;28;20589;-64
2023/02/12 00:04:12;;;;;;;17.70;16.38;;;;;;;;;;4956647;28;20481;-65
2023/02/12 00:06:39;;;;;;;21.52;19.55;;;;;;;;;;4956945;28;20489;-65
2023/02/12 00:09:04;;;;;;;18.85;17.30;;;;;;;;;;4956840;28;20365;-65
2023/02/12 00:11:30;;;;;;;22.95;19.25;;;;;;;;;;4958630;28;20035;-65
2023/02/12 00:13:56;;;;;;;20.83;19.25;;;;;;;;;;4956539;28;20158;-65
2023/02/12 00:16:24;;;;;;;17.88;16.52;;;;;;;;;;4956767;28;20113;-65
2023/02/12 00:18:54;;;;;;;17.05;15.85;;;;;;;;;;4954675;28;20058;-65
2023/02/12 00:21:20;;;;;;;18.47;16.73;;;;;;;;;;4954965;28;20058;-65
2023/02/12 00:23:45;;;;;;;17.02;15.73;;;;;;;;;;4960302;28;20274;-65
2023/02/12 00:26:14;;;;;;;17.02;15.77;;;;;;;;;;4959511;28;20062;-65
2023/02/12 00:28:40;;;;;;;14.65;13.65;;;;;;;;;;4958239;28;20023;-65
2023/02/12 00:31:07;;;;;;;16.13;14.98;;;;;;;;;;4956835;28;20023;-65
2023/02/12 00:33:33;;;;;;;15.07;14.02;;;;;;;;;;4953348;28;20038;-64
2023/02/12 00:35:58;;;;;;;16.05;14.95;;;;;;;;;;4957125;28;20027;-65
2023/02/12 00:38:23;;;;;;;23.05;15.63;;;;;;;;;;4958785;28;20051;-64
2023/02/12 00:40:49;;;;;;;15.07;14.05;;;;;;;;;;4956393;28;20441;-65
2023/02/12 00:43:15;;;;;;;15.20;14.00;;;;;;;;;;4959290;28;20122;-65
2023/02/12 00:45:40;;;;;;;17.00;15.88;;;;;;;;;;4958146;28;20437;-64
2023/02/12 00:48:05;;;;;;;15.07;14.02;;;;;;;;;;4955836;28;20477;-66
2023/02/12 00:50:31;;;;;;;17.83;15.80;;;;;;;;;;4957795;28;20508;-64
2023/02/12 00:52:56;;;;;;;16.48;15.18;;;;;;;;;;4956147;28;20035;-65
2023/02/12 00:55:22;;;;;;;16.60;15.13;;;;;;;;;;4953489;28;20043;-65
2023/02/12 00:57:47;;;;;;;16.88;15.77;;;;;;;;;;4957753;28;20049;-65
2023/02/12 01:00:14;;;;;;;17.33;15.40;;;;;;;;;;4954070;28;20129;-65
2023/02/12 01:02:39;;;;;;;18.33;16.27;;;;;;;;;;4955774;28;20369;-65
2023/02/12 01:05:05;;;;;;;17.15;15.85;;;;;;;;;;4954929;28;20026;-65
2023/02/12 01:07:30;;;;;;;19.38;17.42;;;;;;;;;;4955857;28;20621;-65
2023/02/12 01:09:55;;;;;;;16.63;15.25;;;;;;;;;;4954047;28;20031;-65
2023/02/12 01:12:21;;;;;;;16.92;15.73;;;;;;;;;;4956067;28;20814;-65
2023/02/12 01:14:46;;;;;;;16.65;15.35;;;;;;;;;;4956294;28;20034;-63
2023/02/12 01:17:12;;;;;;;18.40;16.98;;;;;;;;;;4956620;28;20109;-63
2023/02/12 01:19:37;;;;;;;17.83;16.17;;;;;;;;;;4955232;28;20069;-64
2023/02/12 01:22:03;;;;;;;14.80;13.82;;;;;;;;;;4954618;28;20039;-63
2023/02/12 01:24:28;;;;;;;16.63;15.45;;;;;;;;;;4954890;28;20067;-64
2023/02/12 01:26:53;;;;;;;17.10;15.85;;;;;;;;;;4954104;28;20023;-64
2023/02/12 01:29:19;;;;;;;15.50;14.50;;;;;;;;;;4958994;28;20121;-64
2023/02/12 01:31:44;;;;;;;14.95;13.85;;;;;;;;;;4954734;28;20066;-64
2023/02/12 01:34:10;;;;;;;15.27;14.27;;;;;;;;;;4956713;28;20054;-64
2023/02/12 01:36:36;;;;;;;14.80;13.82;;;;;;;;;;4955170;28;20031;-63
2023/02/12 01:39:04;;;;;;;16.23;15.13;;;;;;;;;;4956507;28;20031;-63
2023/02/12 01:41:33;;;;;;;16.73;15.25;;;;;;;;;;4955401;28;20035;-64
2023/02/12 01:44:23;;;;;;;14.80;13.85;;;;;;;;;;4959571;28;20031;-63
2023/02/12 01:46:58;;;;;;;15.65;14.45;;;;;;;;;;4956501;28;20048;-65
2023/02/12 01:49:27;;;;;;;19.45;18.05;;;;;;;;;;4955609;28;20453;-65
2023/02/12 01:52:00;;;;;;;15.93;14.93;;;;;;;;;;4953644;28;20910;-64
2023/02/12 01:54:26;;;;;;;16.77;15.68;;;;;;;;;;4954345;28;20404;-64
2023/02/12 01:56:52;;;;;;;14.07;13.13;;;;;;;;;;4958912;28;20039;-64
2023/02/12 01:59:19;;;;;;;15.50;14.27;;;;;;;;;;4954173;28;20053;-64
2023/02/12 02:01:44;;;;;;;15.30;14.15;;;;;;;;;;4956816;28;20031;-65
2023/02/12 02:04:18;;;;;;;15.23;13.93;;;;;;;;;;4955460;28;20026;-65
2023/02/12 02:06:51;;;;;;;13.80;12.90;;;;;;;;;;4953289;28;20054;-64
2023/02/12 02:09:18;;;;;;;15.02;12.73;;;;;;;;;;4956134;28;20098;-64
2023/02/12 02:14:33;;;;;;;17.17;15.88;;;;;;;;;;4955222;28;20026;-64
2023/02/12 02:17:13;;;;;;;17.27;15.70;;;;;;;;;;4954089;28;20022;-64
2023/02/12 02:20:25;;;;;;;15.93;14.80;;;;;;;;;;4950867;28;20063;-64
2023/02/12 02:22:51;;;;;;;15.25;14.25;;;;;;;;;;4953805;28;20106;-64
2023/02/12 02:25:22;;;;;;;14.82;13.63;;;;;;;;;;4956772;28;20058;-63
2023/02/12 02:28:29;;;;;;;15.27;14.18;;;;;;;;;;4954917;28;20070;-63
2023/02/12 02:31:06;;;;;;;13.60;12.70;;;;;;;;;;4953407;28;20033;-65
2023/02/12 02:33:50;;;;;;;16.70;15.38;;;;;;;;;;4956381;28;20078;-65
2023/02/12 02:36:23;;;;;;;15.68;14.50;;;;;;;;;;4956619;28;20034;-67
2023/02/12 02:39:12;;;;;;;15.25;14.27;;;;;;;;;;4961091;28;20031;-65
2023/02/12 02:41:49;;;;;;;16.30;14.95;;;;;;;;;;4958084;28;20031;-64
2023/02/12 02:44:25;;;;;;;15.57;14.55;;;;;;;;;;4957704;28;20042;-65
2023/02/12 02:46:52;;;;;;;14.50;13.57;;;;;;;;;;4957700;28;20039;-67
2023/02/12 02:49:29;;;;;;;15.18;14.13;;;;;;;;;;4961337;28;20188;-65
2023/02/12 02:52:02;;;;;;;17.80;15.73;;;;;;;;;;4958505;28;20516;-65
2023/02/12 02:54:36;;;;;;;14.48;13.55;;;;;;;;;;4964979;28;20126;-65
2023/02/12 02:57:12;;;;;;;16.35;14.95;;;;;;;;;;4958197;28;20031;-65
2023/02/12 02:59:43;;;;;;;14.80;13.60;;;;;;;;;;4958667;28;20932;-64
2023/02/12 03:02:18;;;;;;;14.95;13.90;;;;;;;;;;4961118;28;20127;-65
2023/02/12 03:04:51;;;;;;;14.35;13.13;;;;;;;;;;4960790;28;20035;-65
2023/02/12 03:07:34;;;;;;;13.73;12.82;;;;;;;;;;4956766;28;20503;-64
2023/02/12 03:10:09;;;;;;;14.43;13.45;;;;;;;;;;4955384;28;20037;-65
2023/02/12 03:12:42;;;;;;;15.05;13.73;;;;;;;;;;4956115;28;20376;-65
2023/02/12 03:15:13;;;;;;;16.83;15.18;;;;;;;;;;4957817;28;20041;-65
2023/02/12 03:17:43;;;;;;;15.00;13.97;;;;;;;;;;4957728;28;20043;-64
2023/02/12 03:20:23;;;;;;;13.43;12.43;;;;;;;;;;4959300;28;20385;-65
2023/02/12 03:22:56;;;;;;;16.20;15.07;;;;;;;;;;4956707;28;20063;-64
2023/02/12 03:25:29;;;;;;;14.52;13.20;;;;;;;;;;4958017;28;20054;-64
2023/02/12 03:28:05;;;;;;;15.02;14.02;;;;;;;;;;4956673;28;20444;-64
2023/02/12 03:30:46;;;;;;;16.33;15.00;;;;;;;;;;4955165;28;20045;-64
2023/02/12 03:33:44;;;;;;;14.88;13.88;;;;;;;;;;4957615;28;20039;-64
2023/02/12 03:36:26;;;;;;;15.00;13.95;;;;;;;;;;4959303;28;20031;-63
2023/02/12 03:38:55;;;;;;;15.63;14.60;;;;;;;;;;4955657;28;20049;-63
2023/02/12 03:41:26;;;;;;;15.77;14.75;;;;;;;;;;4958976;28;20491;-63
2023/02/12 03:43:57;;;;;;;14.40;13.38;;;;;;;;;;4958590;28;20031;-64
2023/02/12 03:46:39;;;;;;;21.10;15.65;;;;;;;;;;4957858;28;20039;-64
2023/02/12 03:49:22;;;;;;;14.48;13.48;;;;;;;;;;4942480;28;20110;-64
2023/02/12 03:51:48;;;;;;;15.95;14.77;;;;;;;;;;4957592;28;20031;-64
2023/02/12 03:54:17;;;;;;;15.93;14.77;;;;;;;;;;4958166;28;20049;-64
2023/02/12 03:56:51;;;;;;;14.75;13.57;;;;;;;;;;4957224;28;20034;-64
2023/02/12 03:59:18;;;;;;;17.00;15.73;;;;;;;;;;4957880;28;20054;-64
2023/02/12 04:01:43;;;;;;;15.50;14.50;;;;;;;;;;4957399;28;20039;-63
2023/02/12 04:04:09;;;;;;;16.38;15.23;;;;;;;;;;4957704;28;20038;-63
2023/02/12 04:06:35;;;;;;;16.08;14.82;;;;;;;;;;4956775;28;20540;-64
2023/02/12 04:09:04;;;;;;;16.05;14.70;;;;;;;;;;4957242;28;20473;-64
2023/02/12 04:11:57;;;;;;;13.32;12.50;;;;;;;;;;4955483;28;20031;-64
2023/02/12 04:14:40;;;;;;;14.80;13.70;;;;;;;;;;4957773;28;20342;-64
2023/02/12 04:17:20;;;;;;;15.10;14.10;;;;;;;;;;4958844;28;20431;-64
2023/02/12 04:19:54;;;;;;;17.08;15.77;;;;;;;;;;4956420;28;20106;-63
2023/02/12 04:22:52;;;;;;;13.93;13.02;;;;;;;;;;4959038;28;20404;-64
2023/02/12 04:25:28;;;;;;;14.20;13.30;;;;;;;;;;4944912;28;20082;-64
2023/02/12 04:28:11;;;;;;;15.70;14.60;;;;;;;;;;4954885;28;20035;-63
2023/02/12 04:30:43;;;;;;;16.13;15.02;;;;;;;;;;4956255;28;20031;-63
2023/02/12 04:33:15;;;;;;;15.15;14.15;;;;;;;;;;4957154;28;20043;-63
2023/02/12 04:35:53;;;;;;;17.50;16.30;;;;;;;;;;4955764;28;20046;-64
2023/02/12 04:38:37;;;;;;;16.67;15.43;;;;;;;;;;4955921;28;20045;-64
2023/02/12 04:41:05;;;;;;;17.02;15.82;;;;;;;;;;4955733;28;20129;-64
2023/02/12 04:43:34;;;;;;;15.93;14.80;;;;;;;;;;4957107;28;20042;-63
2023/02/12 04:46:01;;;;;;;15.95;14.80;;;;;;;;;;4957307;28;20023;-63
2023/02/12 04:48:26;;;;;;;16.85;15.75;;;;;;;;;;4956630;28;20047;-63
2023/02/12 04:50:51;;;;;;;17.40;15.93;;;;;;;;;;4957575;28;20038;-63
2023/02/12 04:53:17;;;;;;;15.40;14.02;;;;;;;;;;4956880;28;20558;-63
2023/02/12 04:55:43;;;;;;;16.63;15.43;;;;;;;;;;4955815;28;20045;-64
2023/02/12 04:58:08;;;;;;;17.67;16.58;;;;;;;;;;4960017;28;20049;-64
2023/02/12 05:00:34;;;;;;;18.10;16.90;;;;;;;;;;4954171;28;20528;-64
2023/02/12 05:02:59;;;;;;;15.63;14.52;;;;;;;;;;4955320;28;20023;-63
2023/02/12 05:05:25;;;;;;;16.13;15.02;;;;;;;;;;4956847;28;20469;-64
2023/02/12 05:07:50;;;;;;;16.50;15.32;;;;;;;;;;4952772;28;20039;-63
2023/02/12 05:10:16;;;;;;;15.95;14.95;;;;;;;;;;4961124;28;20118;-63
2023/02/12 05:12:41;;;;;;;16.30;15.20;;;;;;;;;;4955729;28;20058;-64
2023/02/12 05:15:07;;;;;;;15.88;14.88;;;;;;;;;;4955437;28;20462;-63
2023/02/12 05:17:32;;;;;;;16.63;15.45;;;;;;;;;;4953908;28;20063;-63
2023/02/12 05:19:57;;;;;;;18.25;16.98;;;;;;;;;;4956838;28;20144;-64
2023/02/12 05:22:23;;;;;;;16.40;15.30;;;;;;;;;;4954171;28;20077;-64
2023/02/12 05:24:48;;;;;;;16.40;15.10;;;;;;;;;;4953601;28;20034;-64
2023/02/12 05:27:14;;;;;;;14.73;13.73;;;;;;;;;;4954733;28;20034;-65
2023/02/12 05:29:39;;;;;;;16.48;15.25;;;;;;;;;;4954721;28;20062;-64
2023/02/12 05:32:05;;;;;;;14.60;13.65;;;;;;;;;;4957507;28;20023;-63
2023/02/12 05:34:31;;;;;;;15.30;14.30;;;;;;;;;;4953945;28;20359;-64
2023/02/12 05:36:56;;;;;;;17.33;15.95;;;;;;;;;;4956932;28;20362;-64
2023/02/12 05:39:22;;;;;;;16.38;15.27;;;;;;;;;;4956597;28;20460;-64
2023/02/12 05:41:47;;;;;;;17.25;15.80;;;;;;;;;;4955056;28;20035;-64
2023/02/12 05:44:14;;;;;;;17.65;16.38;;;;;;;;;;4954578;28;20043;-64
2023/02/12 05:46:40;;;;;;;15.48;14.48;;;;;;;;;;4955251;28;20035;-65
2023/02/12 05:49:07;;;;;;;16.80;15.45;;;;;;;;;;4963983;28;20037;-65
2023/02/12 05:51:32;;;;;;;17.23;15.85;;;;;;;;;;4955885;28;20035;-65
2023/02/12 05:54:02;;;;;;;15.32;14.20;;;;;;;;;;4957701;28;20038;-64
2023/02/12 05:56:41;;;;;;;14.85;13.77;;;;;;;;;;4956462;28;20050;-65
2023/02/12 05:59:13;;;;;;;19.20;17.48;;;;;;;;;;4957239;28;20050;-64
2023/02/12 06:01:41;;;;;;;17.40;16.10;;;;;;;;;;4956728;28;20122;-64
2023/02/12 06:04:12;;;;;;;16.85;15.52;;;;;;;;;;4957066;28;20478;-65
2023/02/12 06:06:40;;;;;;;16.90;15.75;;;;;;;;;;4957721;28;20036;-65
2023/02/12 06:09:07;;;;;;;15.40;14.30;;;;;;;;;;4962554;28;20074;-64
2023/02/12 06:11:32;;;;;;;16.80;15.70;;;;;;;;;;4958293;28;20138;-64
2023/02/12 06:14:01;;;;;;;16.92;15.75;;;;;;;;;;4960633;28;20102;-64
2023/02/12 06:16:27;;;;;;;15.77;14.82;;;;;;;;;;4961056;28;20035;-64
2023/02/12 06:18:54;;;;;;;16.40;15.10;;;;;;;;;;4958237;28;20035;-63
2023/02/12 06:21:21;;;;;;;16.65;15.55;;;;;;;;;;4955236;28;20094;-63
2023/02/12 06:23:47;;;;;;;15.40;14.40;;;;;;;;;;4955077;28;20027;-63
2023/02/12 06:26:13;;;;;;;14.55;13.57;;;;;;;;;;4956181;28;20038;-63
2023/02/12 06:28:38;;;;;;;15.23;14.02;;;;;;;;;;4953787;28;20043;-63
2023/02/12 06:31:04;;;;;;;15.98;14.85;;;;;;;;;;4956511;28;20023;-63
2023/02/12 06:33:29;;;;;;;16.95;15.77;;;;;;;;;;4955750;28;20509;-64
2023/02/12 06:35:55;;;;;;;15.18;14.10;;;;;;;;;;4953703;28;20063;-63
2023/02/12 06:38:20;;;;;;;14.07;12.98;;;;;;;;;;4955279;28;20069;-64
2023/02/12 06:40:46;;;;;;;17.00;15.68;;;;;;;;;;4954450;28;20044;-64
2023/02/12 06:43:11;;;;;;;13.73;12.82;;;;;;;;;;4954478;28;20354;-64
2023/02/12 06:45:36;;;;;;;14.10;13.13;;;;;;;;;;4953818;28;20046;-64
2023/02/12 06:48:02;;;;;;;14.40;13.50;;;;;;;;;;4951785;28;20035;-64
2023/02/12 06:50:28;;;;;;;16.80;15.15;;;;;;;;;;4953295;28;20031;-64
2023/02/12 06:52:54;;;;;;;17.58;16.27;;;;;;;;;;4954142;28;20031;-64
2023/02/12 06:55:19;;;;;;;14.10;13.20;;;;;;;;;;4955640;28;20210;-64
2023/02/12 06:57:44;;;;;;;17.40;16.20;;;;;;;;;;4954433;28;20046;-64
2023/02/12 07:00:11;;;;;;;15.93;14.63;;;;;;;;;;4954354;28;20372;-64
2023/02/12 07:02:36;;;;;;;16.35;15.25;;;;;;;;;;4952529;28;20031;-65
2023/02/12 07:05:02;;;;;;;16.83;15.55;;;;;;;;;;4955052;28;20492;-64
2023/02/12 07:07:28;;;;;;;15.30;14.30;;;;;;;;;;4953423;28;20074;-65
2023/02/12 07:09:53;;;;;;;15.15;14.05;;;;;;;;;;4954412;28;20392;-65
2023/02/12 07:12:18;;;;;;;16.38;15.25;;;;;;;;;;4954283;28;20038;-65
2023/02/12 07:14:44;;;;;;;14.68;13.65;;;;;;;;;;4953012;28;20035;-64
2023/02/12 07:17:09;;;;;;;13.75;12.82;;;;;;;;;;4956974;28;20027;-63
2023/02/12 07:19:35;;;;;;;15.50;14.40;;;;;;;;;;4952949;28;20111;-66
2023/02/12 07:22:01;;;;;;;16.42;15.02;;;;;;;;;;4949346;28;20027;-64
2023/02/12 07:24:26;;;;;;;15.75;14.50;;;;;;;;;;4957889;28;20047;-63
2023/02/12 07:26:51;;;;;;;15.57;14.18;;;;;;;;;;4956627;28;20070;-63
2023/02/12 07:29:17;;;;;;;14.68;13.68;;;;;;;;;;4959798;28;20174;-63
2023/02/12 07:31:43;;;;;;;14.98;13.85;;;;;;;;;;4956023;28;20114;-63
2023/02/12 07:34:09;;;;;;;13.30;12.40;;;;;;;;;;4956525;28;20094;-66
2023/02/12 07:36:35;;;;;;;16.58;15.15;;;;;;;;;;4958019;28;20116;-64
2023/02/12 07:39:01;;;;;;;16.27;15.10;;;;;;;;;;4958192;28;20457;-68
2023/02/12 07:41:32;;;;;;;17.10;15.82;;;;;;;;;;4956605;28;20042;-68
2023/02/12 07:44:06;;;;;;;15.38;14.38;;;;;;;;;;4956619;28;20039;-68
2023/02/12 07:46:34;;;;;;;16.98;15.82;;;;;;;;;;4956778;28;20031;-68
2023/02/12 07:49:04;;;;;;;15.98;14.57;;;;;;;;;;4956936;28;20066;-68
2023/02/12 07:51:31;;;;;;;15.65;14.65;;;;;;;;;;4956215;28;20114;-68
2023/02/12 07:53:57;;;;;;;14.73;13.73;;;;;;;;;;4956210;28;20039;-68
2023/02/12 07:56:28;;;;;;;16.08;14.88;;;;;;;;;;4955580;28;20740;-68
2023/02/12 07:58:53;;;;;;;19.13;17.55;;;;;;;;;;4957573;28;20035;-68
2023/02/12 08:01:27;;;;;;;14.82;13.82;;;;;;;;;;4955691;28;20849;-68
2023/02/12 08:03:54;;;;;;;17.60;16.20;;;;;;;;;;4957018;28;20113;-70
2023/02/12 08:06:22;;;;;;;16.63;15.27;;;;;;;;;;4956665;28;20106;-69
2023/02/12 08:08:49;;;;;;;17.63;16.15;;;;;;;;;;4956937;28;20034;-68
2023/02/12 08:11:15;;;;;;;16.77;15.32;;;;;;;;;;4958069;28;20058;-68
2023/02/12 08:13:41;;;;;;;18.25;16.98;;;;;;;;;;4956689;28;20509;-68
2023/02/12 08:16:13;;;;;;;18.17;16.63;;;;;;;;;;4943679;28;20039;-69
2023/02/12 08:18:40;;;;;;;18.60;17.13;;;;;;;;;;4959717;28;20030;-68
2023/02/12 08:21:08;;;;;;;17.05;15.55;;;;;;;;;;4959656;28;20035;-68
2023/02/12 08:23:34;;;;;;;17.45;16.13;;;;;;;;;;4958150;28;20122;-69
2023/02/12 08:26:05;;;;;;;19.13;17.55;;;;;;;;;;4956583;28;20117;-68
2023/02/12 08:28:30;;;;;;;19.08;17.48;;;;;;;;;;4959550;28;20038;-68
2023/02/12 08:31:17;;;;;;;20.75;18.77;;;;;;;;;;4957113;28;20528;-68
2023/02/12 08:33:44;;;;;;;18.83;17.45;;;;;;;;;;4955997;28;20043;-68
2023/02/12 08:36:12;;;;;;;17.63;16.33;;;;;;;;;;4956042;28;20042;-68
2023/02/12 08:38:38;;;;;;;18.63;17.13;;;;;;;;;;4957541;28;20524;-68
2023/02/12 08:41:09;;;;;;;20.27;18.80;;;;;;;;;;4964694;28;20137;-68
2023/02/12 08:43:36;;;;;;;20.75;19.08;;;;;;;;;;4956090;28;20476;-69
2023/02/12 08:46:07;;;;;;;22.23;20.63;;;;;;;;;;4955623;28;20046;-68
2023/02/12 08:48:32;;;;;;;21.67;19.67;;;;;;;;;;4957922;28;20093;-68
2023/02/12 08:51:10;;;;;;;17.77;16.58;;;;;;;;;;4955052;28;20043;-68
2023/02/12 08:53:37;;;;;;;17.55;16.35;;;;;;;;;;4955411;28;20035;-68
2023/02/12 08:56:03;;;;;;;18.88;17.30;;;;;;;;;;4956562;28;20113;-68
2023/02/12 08:58:29;;;;;;;19.10;17.70;;;;;;;;;;4954295;28;20038;-67
2023/02/12 09:00:55;;;;;;;17.63;16.17;;;;;;;;;;4954970;28;20026;-68
2023/02/12 09:03:20;;;;;;;18.30;16.90;;;;;;;;;;4957014;28;20039;-69
2023/02/12 09:05:45;;;;;;;21.15;18.92;;;;;;;;;;4956458;28;20062;-67
2023/02/12 09:08:11;;;;;;;20.63;18.92;;;;;;;;;;4953956;28;20046;-68
2023/02/12 09:10:43;;;;;;;19.83;18.10;;;;;;;;;;4955170;28;20042;-68
2023/02/12 09:13:11;;;;;;;19.55;17.88;;;;;;;;;;4954811;28;20042;-66
2023/02/12 09:15:41;;;;;;;18.33;17.05;;;;;;;;;;4957060;28;20773;-68
2023/02/12 09:18:07;;;;;;;19.08;17.63;;;;;;;;;;4957409;28;20090;-68
2023/02/12 09:20:35;;;;;;;18.70;17.30;;;;;;;;;;4958495;28;20049;-68
2023/02/12 09:23:01;;;;;;;20.98;19.48;;;;;;;;;;4954739;28;20035;-68
2023/02/12 09:25:26;;;;;;;19.75;18.38;;;;;;;;;;4956008;28;20035;-68
2023/02/12 09:27:52;;;;;;;19.05;17.60;;;;;;;;;;4956312;28;20122;-68
2023/02/12 09:30:17;;;;;;;22.83;20.88;;;;;;;;;;4955037;28;20105;-68
2023/02/12 09:32:43;;;;;;;21.45;19.90;;;;;;;;;;4955623;28;20080;-68
2023/02/12 09:35:11;;;;;;;20.48;18.65;;;;;;;;;;4942705;28;20046;-68
2023/02/12 09:37:38;;;;;;;19.52;18.08;;;;;;;;;;4953899;28;20477;-68
2023/02/12 09:40:05;;;;;;;22.35;20.30;;;;;;;;;;4953819;28;20055;-68
2023/02/12 09:42:33;;;;;;;21.75;20.00;;;;;;;;;;4958620;28;20023;-68
2023/02/12 09:45:19;;;;;;;21.08;19.45;;;;;;;;;;4958388;28;20027;-68
2023/02/12 09:47:54;;;;;;;19.33;17.83;;;;;;;;;;4959312;28;20037;-69
2023/02/12 09:50:47;;;;;;;19.98;18.25;;;;;;;;;;4963322;28;20041;-68
2023/02/12 09:53:18;;;;;;;20.20;18.55;;;;;;;;;;4958049;28;20054;-68
2023/02/12 09:55:44;;;;;;;;;;;;;;;;;;4954919;28;20038;-69
2023/02/12 09:58:37;;;;;;;18.23;16.73;;;;;;;;;;4955879;28;19921;-68
2023/02/12 10:01:20;;;;;;;22.10;20.20;;;;;;;;;;4955460;28;20042;-69
2023/02/12 10:03:49;;;;;;;20.30;18.50;;;;;;;;;;4955829;28;20050;-68
2023/02/12 10:06:32;;;;;;;21.23;18.90;;;;;;;;;;4954418;28;20931;-68
2023/02/12 10:09:05;;;;;;;21.30;19.35;;;;;;;;;;4954153;28;20035;-68
2023/02/12 10:11:57;;;;;;;19.73;18.20;;;;;;;;;;4957996;28;20117;-67
2023/02/12 10:14:47;;;;;;;19.30;17.90;;;;;;;;;;4955728;28;20118;-68
2023/02/12 10:17:21;;;;;;;19.45;17.52;;;;;;;;;;4954531;28;20030;-67
2023/02/12 10:19:53;;;;;;;20.92;19.25;;;;;;;;;;4957067;28;20117;-67
2023/02/12 10:22:45;;;;;;;20.95;18.95;;;;;;;;;;4957263;28;20031;-68
2023/02/12 10:25:37;;;;;;;18.98;17.48;;;;;;;;;;4941766;28;20031;-67
2023/02/12 10:28:15;;;;;;;16.83;15.57;;;;;;;;;;4950820;28;20039;-68
2023/02/12 10:30:52;;;;;;;20.70;18.98;;;;;;;;;;4956953;28;20034;-68
2023/02/12 10:33:42;;;;;;;20.02;18.63;;;;;;;;;;4955082;28;20035;-68
2023/02/12 10:36:36;;;;;;;17.92;16.48;;;;;;;;;;4953272;28;20038;-67
2023/02/12 10:39:11;;;;;;;18.50;17.02;;;;;;;;;;4955298;28;20402;-68
2023/02/12 10:41:42;;;;;;;19.65;18.15;;;;;;;;;;4955201;28;20493;-68
2023/02/12 10:44:10;;;;;;;19.05;17.55;;;;;;;;;;4952118;28;20130;-68
2023/02/12 10:46:36;;;;;;;17.52;16.23;;;;;;;;;;4953246;28;20421;-68
2023/02/12 10:49:02;;;;;;;17.80;16.40;;;;;;;;;;4953583;28;20043;-68
2023/02/12 10:51:35;;;;;;;19.83;18.25;;;;;;;;;;4951466;28;20091;-68
2023/02/12 10:54:35;;;;;;;20.42;18.85;;;;;;;;;;4955600;28;20063;-68
2023/02/12 10:57:12;;;;;;;20.23;18.52;;;;;;;;;;4959416;28;20567;-68
2023/02/12 10:59:38;;;;;;;19.67;17.98;;;;;;;;;;4955121;28;20042;-68
2023/02/12 11:02:27;;;;;;;21.10;19.10;;;;;;;;;;4954893;28;20121;-67
2023/02/12 11:04:54;;;;;;;19.65;18.08;;;;;;;;;;4958831;28;20035;-69
2023/02/12 11:07:20;;;;;;;20.05;18.38;;;;;;;;;;4962740;28;20488;-69
2023/02/12 11:09:48;;;;;;;21.35;19.75;;;;;;;;;;4958688;28;20715;-67
2023/02/12 11:12:38;;;;;;;17.75;16.55;;;;;;;;;;4955231;28;20491;-65
2023/02/12 11:15:17;;;;;;;20.35;17.88;;;;;;;;;;4954951;28;20726;-65
2023/02/12 11:17:53;;;;;;;21.98;19.80;;;;;;;;;;4958532;28;20032;-68
2023/02/12 11:20:26;;;;;;;19.40;18.00;;;;;;;;;;4958680;28;20106;-67
2023/02/12 11:23:01;;;;;;;19.00;17.38;;;;;;;;;;4972125;28;20042;-65
2023/02/12 11:25:35;;;;;;;20.83;19.15;;;;;;;;;;4958869;28;20034;-64
2023/02/12 11:28:04;;;;;;;19.00;17.77;;;;;;;;;;4958867;28;20441;-68
2023/02/12 11:30:30;;;;;;;19.13;17.73;;;;;;;;;;4960067;28;20121;-64
2023/02/12 11:33:21;;;;;;;24.83;19.63;;;;;;;;;;4955445;28;20106;-67
2023/02/12 11:35:55;;;;;;;21.70;17.45;;;;;;;;;;4960761;28;20046;-66
2023/02/12 11:38:25;;;;;;;18.67;17.23;;;;;;;;;;4965128;28;20031;-65
2023/02/12 11:40:54;;;;;;;20.08;18.50;;;;;;;;;;4957730;28;20178;-68
2023/02/12 11:43:20;;;;;;;18.88;17.38;;;;;;;;;;4965130;28;20027;-70
2023/02/12 11:45:51;;;;;;;17.70;16.45;;;;;;;;;;4960111;28;20038;-64
2023/02/12 11:48:22;;;;;;;21.65;19.27;;;;;;;;;;4958265;28;20034;-67
2023/02/12 11:50:49;;;;;;;;;;;;;;;;;;4959910;28;20038;-66
2023/02/12 11:53:34;;;;;;;20.00;18.30;;;;;;;;;;4959437;28;19945;-67
2023/02/12 11:56:04;;;;;;;17.58;16.15;;;;;;;;;;4962095;28;20415;-63
2023/02/12 11:58:29;;;;;;;16.45;15.25;;;;;;;;;;4960517;28;20035;-68
2023/02/12 12:01:04;;;;;;;20.55;19.05;;;;;;;;;;4957802;28;20045;-66
2023/02/12 12:03:43;;;;;;;17.92;16.52;;;;;;;;;;4956965;28;20497;-65
2023/02/12 12:06:45;;;;;;;18.27;16.63;;;;;;;;;;4956145;28;20100;-65
2023/02/12 12:09:25;;;;;;;17.70;16.23;;;;;;;;;;4955931;28;20054;-65
2023/02/12 12:12:09;;;;;;;20.17;18.15;;;;;;;;;;4959786;28;20032;-66
2023/02/12 12:21:23;;;;;;;17.27;15.85;;;;;;;;;;4958943;28;20034;-65
2023/02/12 12:23:56;;;;;;;18.35;17.05;;;;;;;;;;4945405;28;20370;-64
2023/02/12 12:26:25;;;;;;;17.50;16.10;;;;;;;;;;4956944;28;20130;-67
2023/02/12 12:29:12;;;;;;;14.68;13.68;;;;;;;;;;4956924;28;20039;-66
2023/02/12 12:31:40;;;;;;;15.77;14.30;;;;;;;;;;4953691;28;20755;-65
2023/02/12 12:34:08;;;;;;;16.38;15.00;;;;;;;;;;4962373;28;20047;-66
2023/02/12 12:36:58;;;;;;;15.35;14.30;;;;;;;;;;4955548;28;20458;-64
2023/02/12 12:39:29;;;;;;;16.40;15.25;;;;;;;;;;4958180;28;20094;-65
2023/02/12 12:42:06;;;;;;;19.27;17.35;;;;;;;;;;4959292;28;20360;-66
2023/02/12 12:44:56;;;;;;;17.77;16.45;;;;;;;;;;4959953;28;20118;-67
2023/02/12 12:47:24;;;;;;;18.60;14.82;;;;;;;;;;4964522;28;20054;-64
2023/02/12 12:50:08;;;;;;;14.25;13.23;;;;;;;;;;4997578;28;20638;-65
2023/02/12 12:53:03;;;;;;;15.00;13.90;;;;;;;;;;4993596;28;20034;-65
2023/02/12 12:56:05;;;;;;;13.57;12.68;;;;;;;;;;4998381;28;20041;-67
2023/02/12 12:58:57;;;;;;;15.05;13.63;;;;;;;;;;4997748;28;20096;-66
2023/02/12 13:01:42;;;;;;;15.07;13.90;;;;;;;;;;4993953;28;21467;-68
2023/02/12 13:04:32;;;;;;;16.42;15.27;;;;;;;;;;4993712;28;20057;-65
2023/02/12 13:07:31;;;;;;;15.25;14.23;;;;;;;;;;5001939;28;20080;-66
2023/02/12 13:10:14;;;;;;;81.35;53.50;;;;;;;;;;4993626;28;20041;-64
2023/02/12 13:12:58;;;;;;;18.58;17.05;;;;;;;;;;5001187;28;20463;-67
2023/02/12 13:15:45;;;;;;;15.63;14.45;;;;;;;;;;4991621;28;20030;-67
2023/02/12 13:18:20;;;;;;;30.92;27.70;;;;;;;;;;4999945;28;20097;-66
2023/02/12 13:20:59;;;;;;;18.33;16.77;;;;;;;;;;4993477;28;20034;-66
2023/02/12 13:23:55;;;;;;;15.45;14.35;;;;;;;;;;4996721;28;20337;-65
2023/02/12 13:26:36;;;;;;;21.50;18.73;;;;;;;;;;4995260;28;20046;-67
2023/02/12 13:29:09;;;;;;;15.90;14.70;;;;;;;;;;4997839;28;20050;-68
2023/02/12 13:31:43;;;;;;;18.60;16.80;;;;;;;;;;4997234;28;20033;-66
2023/02/12 13:34:13;;;;;;;15.15;14.07;;;;;;;;;;4994900;28;20044;-67
2023/02/12 13:36:40;;;;;;;14.85;13.85;;;;;;;;;;4996452;28;20034;-68
2023/02/12 13:39:15;;;;;;;13.70;12.80;;;;;;;;;;4998210;28;20410;-68
2023/02/12 13:41:51;;;;;;;13.20;12.30;;;;;;;;;;4992921;28;20061;-67
2023/02/12 13:44:51;;;;;;;12.95;12.05;;;;;;;;;;4994540;28;20030;-66
2023/02/12 13:47:55;;;;;;;13.32;12.25;;;;;;;;;;4991855;28;20046;-67
2023/02/12 13:50:39;;;;;;;16.02;14.93;;;;;;;;;;4990327;28;20191;-64
2023/02/12 13:53:41;;;;;;;15.20;14.00;;;;;;;;;;4992553;28;20487;-65
2023/02/12 13:56:39;;;;;;;15.60;14.40;;;;;;;;;;4991499;28;20053;-64
2023/02/12 13:59:30;;;;;;;15.13;13.57;;;;;;;;;;4992870;28;20034;-64
2023/02/12 14:01:57;;;;;;;15.38;14.27;;;;;;;;;;4990725;28;20586;-64
2023/02/12 14:04:30;;;;;;;15.35;14.13;;;;;;;;;;4990376;28;20376;-65
2023/02/12 14:07:08;;;;;;;16.63;15.32;;;;;;;;;;4991007;28;20058;-65
2023/02/12 14:09:36;;;;;;;13.60;12.70;;;;;;;;;;4993117;28;20057;-64
2023/02/12 14:12:05;;;;;;;17.52;16.27;;;;;;;;;;4994075;28;20066;-64
2023/02/12 14:14:44;;;;;;;16.83;15.55;;;;;;;;;;4991630;28;20442;-64
2023/02/12 14:17:29;;;;;;;17.55;16.05;;;;;;;;;;4992223;28;20030;-65
2023/02/12 14:20:19;;;;;;;14.27;13.38;;;;;;;;;;4993180;28;20033;-64
2023/02/12 14:22:47;;;;;;;15.07;14.05;;;;;;;;;;4995302;28;20034;-64
2023/02/12 14:25:12;;;;;;;16.20;15.00;;;;;;;;;;4996644;28;20046;-64
2023/02/12 14:27:45;;;;;;;14.98;13.65;;;;;;;;;;4991031;28;20034;-64
2023/02/12 14:30:10;;;;;;;14.85;13.85;;;;;;;;;;4996720;28;20538;-64
2023/02/12 14:32:42;;;;;;;14.85;13.52;;;;;;;;;;4997584;28;20088;-64
2023/02/12 14:35:26;;;;;;;16.15;14.85;;;;;;;;;;4993975;28;20064;-64
2023/02/12 14:37:53;;;;;;;17.73;15.93;;;;;;;;;;4997773;28;20076;-64
2023/02/12 14:40:35;;;;;;;15.93;14.93;;;;;;;;;;5001802;28;20058;-65
2023/02/12 14:43:23;;;;;;;15.43;14.32;;;;;;;;;;4996927;28;20148;-64
2023/02/12 14:45:49;;;;;;;14.98;13.73;;;;;;;;;;4996538;28;20038;-64
2023/02/12 14:48:52;;;;;;;15.50;14.07;;;;;;;;;;4997662;28;20477;-64
2023/02/12 14:51:49;;;;;;;15.98;14.77;;;;;;;;;;4999611;28;20030;-64
2023/02/12 14:54:40;;;;;;;13.68;12.63;;;;;;;;;;4995652;28;20046;-64
2023/02/12 14:57:20;;;;;;;14.47;13.47;;;;;;;;;;4999451;28;20480;-63
2023/02/12 14:59:47;;;;;;;14.52;13.63;;;;;;;;;;4996478;28;20284;-64